createdAt,value
2023-02-08T00:00:17.820Z,-5.70
2023-02-08T00:05:22.809Z,-5.70
2023-02-08T00:10:26.692Z,-5.60
2023-02-08T00:15:30.342Z,-5.20
2023-02-08T00:20:35.074Z,-5.50
2023-02-08T00:25:38.607Z,-5.60
2023-02-08T00:30:43.464Z,-5.70
2023-02-08T00:35:48.586Z,-5.70
2023-02-08T00:40:52.068Z,-5.70
2023-02-08T00:45:56.558Z,-5.90
2023-02-08T00:51:04.951Z,-5.90
2023-02-08T00:56:09.117Z,-5.70
2023-02-08T01:01:13.722Z,-5.70
2023-02-08T01:06:19.439Z,-5.80
2023-02-08T01:11:26.072Z,-6.00
2023-02-08T01:16:33.030Z,-6.10
2023-02-08T01:21:40.590Z,-6.20
2023-02-08T01:26:43.993Z,-6.20
2023-02-08T01:31:47.604Z,-6.30
2023-02-08T01:36:52.399Z,-6.30
2023-02-08T01:41:55.991Z,-6.30
2023-02-08T01:46:59.260Z,-6.30
2023-02-08T01:52:07.780Z,-6.20
2023-02-08T01:57:11.960Z,-5.90
2023-02-08T02:02:18.932Z,-6.30
2023-02-08T02:07:29.409Z,-6.40
2023-02-08T02:12:34.270Z,-6.40
2023-02-08T02:17:38.741Z,-6.50
2023-02-08T02:23:18.756Z,-5.80
2023-02-08T02:29:01.426Z,-6.60
2023-02-08T02:34:11.771Z,-6.70
2023-02-08T02:39:22.043Z,-6.70
2023-02-08T02:44:35.011Z,-6.40
2023-02-08T02:49:49.234Z,-5.50
2023-02-08T02:54:54.314Z,-6.30
2023-02-08T02:59:59.550Z,-6.80
2023-02-08T03:05:07.154Z,-6.40
2023-02-08T03:10:26.066Z,-6.80
2023-02-08T03:15:36.549Z,-6.90
2023-02-08T03:20:44.228Z,-7.00
2023-02-08T03:25:53.754Z,-7.00
2023-02-08T03:31:06.767Z,-7.00
2023-02-08T03:36:18.143Z,-7.00
2023-02-08T03:41:27.564Z,-7.00
2023-02-08T03:46:35.088Z,-7.00
2023-02-08T03:51:40.741Z,-7.00
2023-02-08T03:56:48.324Z,-6.20
2023-02-08T04:01:56.838Z,-6.90
2023-02-08T04:07:01.750Z,-6.90
2023-02-08T04:12:05.608Z,-6.90
2023-02-08T04:17:08.914Z,-7.00
2023-02-08T04:22:13.623Z,-7.00
2023-02-08T04:27:16.958Z,-7.10
2023-02-08T04:32:20.271Z,-7.10
2023-02-08T04:37:25.063Z,-7.00
2023-02-08T04:42:28.444Z,-6.90
2023-02-08T04:47:31.757Z,-6.90
2023-02-08T04:52:36.480Z,-6.90
2023-02-08T04:57:39.874Z,-6.90
2023-02-08T05:02:43.284Z,-5.70
2023-02-08T05:07:48.123Z,-6.90
2023-02-08T05:12:51.613Z,-7.00
2023-02-08T05:17:55.046Z,-6.90
2023-02-08T05:22:59.793Z,-7.10
2023-02-08T05:28:03.231Z,-3.40
2023-02-08T05:33:06.591Z,-7.30
2023-02-08T05:38:11.240Z,-6.60
2023-02-08T05:43:14.526Z,-7.20
2023-02-08T05:48:17.884Z,-7.30
2023-02-08T05:53:22.636Z,-7.30
2023-02-08T05:58:26.712Z,-6.80
2023-02-08T06:03:30.110Z,-7.20
2023-02-08T06:08:34.930Z,-7.20
2023-02-08T06:13:39.265Z,-7.10
2023-02-08T06:18:42.902Z,-7.10
2023-02-08T06:23:47.611Z,-7.00
2023-02-08T06:28:50.907Z,-6.90
2023-02-08T06:33:54.267Z,-6.80
2023-02-08T06:38:59.192Z,-6.80
2023-02-08T06:44:02.678Z,-6.80
2023-02-08T06:49:06.074Z,-5.50
2023-02-08T06:54:11.125Z,-6.60
2023-02-08T06:59:14.517Z,-6.60
2023-02-08T07:04:17.846Z,-5.80
2023-02-08T07:09:22.652Z,-5.60
2023-02-08T07:14:26.084Z,-6.30
2023-02-08T07:19:29.898Z,-7.60
2023-02-08T07:24:35.247Z,-6.10
2023-02-08T07:29:39.399Z,-6.00
2023-02-08T07:34:42.775Z,-5.80
2023-02-08T07:39:47.461Z,-5.70
2023-02-08T07:44:50.832Z,-5.00
2023-02-08T07:49:54.148Z,-5.10
2023-02-08T07:54:58.922Z,-4.70
2023-02-08T08:00:02.349Z,-4.30
2023-02-08T08:05:15.412Z,-3.80
2023-02-08T08:10:20.305Z,-3.00
2023-02-08T08:15:23.623Z,-1.40
2023-02-08T08:20:27.291Z,-1.20
2023-02-08T08:25:32.033Z,-0.30
2023-02-08T08:30:35.382Z,0.80
2023-02-08T08:35:38.915Z,1.30
2023-02-08T08:40:43.757Z,1.40
2023-02-08T08:45:47.192Z,1.40
2023-02-08T08:50:50.476Z,1.90
2023-02-08T08:55:55.177Z,2.30
2023-02-08T09:01:00.394Z,2.00
2023-02-08T09:06:03.942Z,2.10
2023-02-08T09:11:10.740Z,2.60
2023-02-08T09:16:16.338Z,2.90
2023-02-08T09:21:22.131Z,2.50
2023-02-08T09:26:26.933Z,2.50
2023-02-08T09:31:32.969Z,2.60
2023-02-08T09:36:38.844Z,2.20
2023-02-08T09:42:08.185Z,2.70
2023-02-08T09:47:17.402Z,2.50
2023-02-08T09:52:26.305Z,2.80
2023-02-08T09:57:35.578Z,2.70
2023-02-08T10:02:39.091Z,2.80
2023-02-08T10:07:43.978Z,3.00
2023-02-08T10:12:57.043Z,3.10
2023-02-08T10:18:26.256Z,2.80
2023-02-08T10:23:42.167Z,2.90
2023-02-08T10:29:08.690Z,3.00
2023-02-08T10:34:25.000Z,3.60
2023-02-08T10:39:35.504Z,4.20
2023-02-08T10:44:53.003Z,4.60
2023-02-08T10:50:02.643Z,4.20
2023-02-08T10:55:15.148Z,3.90
2023-02-08T11:00:22.432Z,4.80
2023-02-08T11:05:34.983Z,4.50
2023-02-08T11:10:39.073Z,4.80
2023-02-08T11:15:48.201Z,4.80
2023-02-08T11:20:54.586Z,5.20
2023-02-08T11:26:18.878Z,5.60
2023-02-08T11:31:23.528Z,6.70
2023-02-08T11:36:27.251Z,7.00
2023-02-08T11:41:31.199Z,6.80
2023-02-08T11:46:37.480Z,6.60
2023-02-08T11:51:41.051Z,5.80
2023-02-08T11:56:44.357Z,6.20
2023-02-08T12:01:49.067Z,7.10
2023-02-08T12:07:22.738Z,5.30
2023-02-08T12:12:32.670Z,5.70
2023-02-08T12:18:03.914Z,6.00
2023-02-08T12:23:36.147Z,6.40
2023-02-08T12:28:50.588Z,6.30
2023-02-08T12:34:05.244Z,6.20
2023-02-08T12:39:37.600Z,6.40
2023-02-08T12:44:51.542Z,6.30
2023-02-08T12:50:04.641Z,6.10
2023-02-08T12:55:18.289Z,5.60
2023-02-08T13:00:24.530Z,5.60
2023-02-08T13:05:34.639Z,6.20
2023-02-08T13:10:41.614Z,4.90
2023-02-08T13:15:50.485Z,3.90
2023-02-08T13:20:58.017Z,4.90
2023-02-08T13:26:07.391Z,6.20
2023-02-08T13:31:15.668Z,5.70
2023-02-08T13:36:25.931Z,6.10
2023-02-08T13:41:30.766Z,6.10
2023-02-08T13:46:39.724Z,6.20
2023-02-08T13:51:55.400Z,5.90
2023-02-08T13:56:59.423Z,4.90
2023-02-08T14:02:28.598Z,5.10
2023-02-08T14:07:44.551Z,5.80
2023-02-08T14:12:56.198Z,5.40
2023-02-08T14:18:01.261Z,5.80
2023-02-08T14:23:08.954Z,5.80
2023-02-08T14:28:26.793Z,5.60
2023-02-08T14:33:33.159Z,6.10
2023-02-08T14:44:56.119Z,8.00
2023-02-08T14:50:07.204Z,8.60
2023-02-08T14:55:17.504Z,9.40
2023-02-08T15:00:25.593Z,8.70
2023-02-08T15:05:31.313Z,8.50
2023-02-08T15:10:36.282Z,8.30
2023-02-08T15:15:44.085Z,7.60
2023-02-08T15:20:57.242Z,8.10
2023-02-08T15:26:02.184Z,8.50
2023-02-08T15:31:10.257Z,8.30
2023-02-08T15:36:18.954Z,6.10
2023-02-08T15:41:27.690Z,5.50
2023-02-08T15:46:33.207Z,5.10
2023-02-08T15:51:36.902Z,4.60
2023-02-08T15:56:42.559Z,3.90
2023-02-08T16:01:49.714Z,3.10
2023-02-08T16:06:55.712Z,2.40
2023-02-08T16:12:01.867Z,2.00
2023-02-08T16:17:06.388Z,1.70
2023-02-08T16:22:25.917Z,1.60
2023-02-08T16:27:31.784Z,1.40
2023-02-08T16:32:39.728Z,1.30
2023-02-08T16:37:43.194Z,1.20
2023-02-08T16:42:46.308Z,1.00
2023-02-08T16:47:52.090Z,0.90
2023-02-08T16:52:56.279Z,0.80
2023-02-08T16:58:00.063Z,0.60
2023-02-08T17:03:04.759Z,0.60
2023-02-08T17:08:10.019Z,0.60
2023-02-08T17:13:20.334Z,0.60
2023-02-08T17:18:25.741Z,0.60
2023-02-08T17:23:28.839Z,0.30
2023-02-08T17:28:34.594Z,0.30
2023-02-08T17:33:40.274Z,0.10
2023-02-08T17:38:44.312Z,0.00
2023-02-08T17:43:47.619Z,0.10
2023-02-08T17:48:52.586Z,0.10
2023-02-08T17:53:55.842Z,-0.10
2023-02-08T17:59:00.989Z,-0.30
2023-02-08T18:04:05.524Z,-0.40
2023-02-08T18:09:08.577Z,-0.50
2023-02-08T18:14:11.683Z,1.30
2023-02-08T18:19:16.183Z,-0.70
2023-02-08T18:24:19.238Z,-0.80
2023-02-08T18:29:23.224Z,-0.60
2023-02-08T18:34:27.680Z,-0.90
2023-02-08T18:39:30.839Z,-0.80
2023-02-08T18:44:35.354Z,-1.20
2023-02-08T18:49:41.506Z,-1.20
2023-02-08T18:54:44.551Z,-1.20
2023-02-08T18:59:47.790Z,-1.20
2023-02-08T19:04:52.575Z,-0.80
2023-02-08T19:09:55.636Z,-1.50
2023-02-08T19:14:58.699Z,-1.50
2023-02-08T19:20:03.136Z,-1.60
2023-02-08T19:25:06.517Z,-1.70
2023-02-08T19:30:11.848Z,-1.30
2023-02-08T19:35:16.545Z,-1.30
2023-02-08T19:40:20.799Z,-1.30
2023-02-08T19:45:25.232Z,-1.40
2023-02-08T19:50:30.033Z,-1.20
2023-02-08T19:55:33.550Z,-1.50
2023-02-08T20:00:37.425Z,-1.80
2023-02-08T20:05:42.490Z,-1.90
2023-02-08T20:10:48.586Z,-2.00
2023-02-08T20:15:51.949Z,-1.90
2023-02-08T20:21:03.957Z,-1.70
2023-02-08T20:26:09.842Z,-1.60
2023-02-08T20:31:15.711Z,-1.60
2023-02-08T20:36:22.156Z,-1.70
2023-02-08T20:41:27.716Z,-1.70
2023-02-08T20:46:33.840Z,-1.60
2023-02-08T20:51:38.736Z,-1.60
2023-02-08T20:56:42.085Z,-1.60
2023-02-08T21:01:46.598Z,-1.80
2023-02-08T21:06:52.536Z,-2.00
2023-02-08T21:11:56.023Z,-2.10
2023-02-08T21:16:59.676Z,-2.10
2023-02-08T21:22:04.570Z,-2.10
2023-02-08T21:27:07.989Z,-2.10
2023-02-08T21:32:11.300Z,-2.10
2023-02-08T21:37:16.298Z,-2.10
2023-02-08T21:42:19.667Z,-2.10
2023-02-08T21:47:23.027Z,-2.20
2023-02-08T21:52:44.973Z,-2.30
2023-02-08T21:57:48.324Z,-2.30
2023-02-08T22:02:51.755Z,-2.30
2023-02-08T22:07:58.317Z,-2.30
2023-02-08T22:13:02.196Z,-2.40
2023-02-08T22:18:06.297Z,-2.50
2023-02-08T22:23:10.936Z,-2.50
2023-02-08T22:28:14.974Z,-2.50
2023-02-08T22:33:18.879Z,-2.50
2023-02-08T22:38:23.641Z,-2.60
2023-02-08T22:43:26.988Z,-2.60
2023-02-08T22:48:30.692Z,-2.60
2023-02-08T22:53:35.464Z,-2.60
2023-02-08T22:58:38.755Z,-2.60
2023-02-08T23:03:42.243Z,-2.70
2023-02-08T23:08:48.220Z,-2.70
2023-02-08T23:13:51.652Z,-2.30
2023-02-08T23:18:55.299Z,-2.90
2023-02-08T23:24:00.030Z,-3.00
2023-02-08T23:29:03.631Z,-3.10
2023-02-08T23:34:06.997Z,-3.20
2023-02-08T23:39:11.990Z,-3.40
2023-02-08T23:44:15.280Z,-3.40
2023-02-08T23:49:18.682Z,-3.50
2023-02-08T23:54:23.376Z,-3.50
2023-02-08T23:59:26.713Z,-3.60
